Time;durP1;ratioP1;P1;durP2;ratioP2;P2;SDS_P1;SDS_P2;PMS_P1;PMS_P2;Temp;Humidity;BMP_temperature;BMP_pressure;BME280_temperature;BME280_humidity;BME280_pressure;Samples;Min_cycle;Max_cycle;Signal;HPM_P1;HPM_P2
2022/12/02 00:01:33;;;;;;;;;;;6.20;96.90;;;;;;5098762;28;19998;-79
2022/12/02 00:04:01;;;;;;;;;;;6.20;96.90;;;;;;5102637;28;20006;-79
2022/12/02 00:06:29;;;;;;;;;;;6.20;96.90;;;;;;5106850;27;20552;-80
2022/12/02 00:08:58;;;;;;;;;;;6.20;96.80;;;;;;5096702;27;19986;-80
2022/12/02 00:11:26;;;;;;;;;;;6.20;96.90;;;;;;5106332;27;19982;-79
2022/12/02 00:13:53;;;;;;;;;;;6.20;96.90;;;;;;5099543;27;19983;-79
2022/12/02 00:16:20;;;;;;;;;;;6.20;96.80;;;;;;5102002;28;20013;-79
2022/12/02 00:18:48;;;;;;;;;;;6.20;96.90;;;;;;5099560;28;19974;-80
2022/12/02 00:21:15;;;;;;;;;;;6.20;96.90;;;;;;5101009;28;19979;-78
2022/12/02 00:23:42;;;;;;;;;;;6.20;97.00;;;;;;5099864;28;20827;-79
2022/12/02 00:26:09;;;;;;;;;;;6.20;97.00;;;;;;5100154;28;19975;-80
2022/12/02 00:28:35;;;;;;;;;;;6.20;97.00;;;;;;5100253;27;19979;-80
2022/12/02 00:31:02;;;;;;;;;;;6.10;97.00;;;;;;5100414;27;19991;-80
2022/12/02 00:33:28;;;;;;;;;;;6.20;97.00;;;;;;5105377;27;19991;-81
2022/12/02 00:35:56;;;;;;;;;;;6.20;97.00;;;;;;5100132;27;19975;-80
2022/12/02 00:38:23;;;;;;;;;;;6.20;97.10;;;;;;5100217;28;20327;-80
2022/12/02 00:40:49;;;;;;;;;;;6.20;97.10;;;;;;5099676;27;19982;-80
2022/12/02 00:48:44;;;;;;;;;;;6.10;97.00;;;;;;5103674;27;19985;-80
2022/12/02 00:51:12;;;;;;;;;;;6.10;97.10;;;;;;5101886;27;19974;-80
2022/12/02 00:53:38;;;;;;;;;;;6.10;97.10;;;;;;5102043;27;19991;-81
2022/12/02 00:56:05;;;;;;;;;;;6.10;97.10;;;;;;5097633;27;19974;-80
2022/12/02 00:58:32;;;;;;;;;;;6.10;97.10;;;;;;5101803;28;19979;-79
2022/12/02 01:00:58;;;;;;;;;;;6.10;97.10;;;;;;5098749;28;20480;-79
2022/12/02 01:03:25;;;;;;;;;;;6.10;97.10;;;;;;5099189;28;20017;-80
2022/12/02 01:05:51;;;;;;;;;;;6.10;97.10;;;;;;5105138;27;19984;-80
2022/12/02 01:08:21;;;;;;;;;;;6.10;97.20;;;;;;5103149;28;19991;-80
2022/12/02 01:10:48;;;;;;;;;;;6.10;97.10;;;;;;5101197;28;20000;-80
2022/12/02 01:13:14;;;;;;;;;;;6.10;97.20;;;;;;5105381;27;19998;-80
2022/12/02 01:15:41;;;;;;;;;;;6.10;97.20;;;;;;5100144;27;19994;-80
2022/12/02 01:18:07;;;;;;;;;;;6.00;97.10;;;;;;5102332;27;19975;-79
2022/12/02 01:20:34;;;;;;;;;;;6.10;97.20;;;;;;5102541;28;19979;-80
2022/12/02 01:23:00;;;;;;;;;;;6.10;97.20;;;;;;5099988;28;19991;-78
2022/12/02 01:25:28;;;;;;;;;;;6.10;97.20;;;;;;5099212;28;19975;-81
2022/12/02 01:27:55;;;;;;;;;;;6.00;97.20;;;;;;5103564;28;19994;-79
2022/12/02 01:30:21;;;;;;;;;;;6.10;97.20;;;;;;5089331;28;19978;-80
2022/12/02 01:32:48;;;;;;;;;;;6.00;97.20;;;;;;5078980;28;19998;-80
2022/12/02 01:35:15;;;;;;;;;;;6.00;97.20;;;;;;5080148;28;19979;-80
2022/12/02 01:37:41;;;;;;;;;;;6.10;97.30;;;;;;5083413;28;19975;-81
2022/12/02 01:40:08;;;;;;;;;;;6.00;97.20;;;;;;5079657;28;20431;-80
2022/12/02 01:42:37;;;;;;;;;;;6.00;97.20;;;;;;5086162;28;19991;-79
2022/12/02 01:45:04;;;;;;;;;;;6.00;97.30;;;;;;5083733;28;20002;-80
2022/12/02 01:47:30;;;;;;;;;;;6.00;97.30;;;;;;5079171;28;20003;-79
2022/12/02 01:49:57;;;;;;;;;;;6.00;97.30;;;;;;5073932;28;20442;-79
2022/12/02 01:52:24;;;;;;;;;;;6.00;97.30;;;;;;5078545;28;20129;-80
2022/12/02 01:54:51;;;;;;;;;;;6.00;97.30;;;;;;5080814;28;20443;-79
2022/12/02 01:57:19;;;;;;;;;;;6.00;97.20;;;;;;5074492;28;20141;-80
2022/12/02 01:59:47;;;;;;;;;;;6.00;97.30;;;;;;5079626;28;20072;-81
2022/12/02 02:02:24;;;;;;;;;;;6.00;97.20;;;;;;5071106;28;20006;-79
2022/12/02 02:04:51;;;;;;;;;;;6.00;97.20;;;;;;5077610;28;19979;-79
2022/12/02 02:07:18;;;;;;;;;;;6.00;97.20;;;;;;5074569;28;19998;-79
2022/12/02 02:09:44;;;;;;;;;;;6.00;97.20;;;;;;5074494;28;19975;-80
2022/12/02 02:12:11;;;;;;;;;;;6.00;97.20;;;;;;5070156;28;20370;-80
2022/12/02 02:14:37;;;;;;;;;;;6.00;97.20;;;;;;5073985;28;19975;-79
2022/12/02 02:17:06;;;;;;;;;;;6.00;97.30;;;;;;5080398;28;20833;-79
2022/12/02 02:19:33;;;;;;;;;;;6.00;97.30;;;;;;5079036;28;19974;-80
2022/12/02 02:22:02;;;;;;;;;;;6.00;97.30;;;;;;5082209;28;19998;-79
2022/12/02 02:24:30;;;;;;;;;;;6.00;97.60;;;;;;5080387;28;19982;-79
2022/12/02 02:26:56;;;;;;;;;;;5.90;97.30;;;;;;5079068;28;20470;-80
2022/12/02 02:29:23;;;;;;;;;;;5.90;97.30;;;;;;5091029;28;19979;-79
2022/12/02 02:31:50;;;;;;;;;;;6.00;97.30;;;;;;5098728;28;20059;-80
2022/12/02 02:34:16;;;;;;;;;;;5.90;97.30;;;;;;5099182;28;19975;-79
2022/12/02 02:36:43;;;;;;;;;;;5.90;97.30;;;;;;5093479;28;20662;-80
2022/12/02 02:39:09;;;;;;;;;;;5.90;97.30;;;;;;5100570;28;19982;-79
2022/12/02 02:41:37;;;;;;;;;;;5.90;97.70;;;;;;5097247;28;19974;-79
2022/12/02 02:44:04;;;;;;;;;;;5.90;97.40;;;;;;5097553;28;19991;-79
2022/12/02 02:46:31;;;;;;;;;;;5.90;97.40;;;;;;5098080;28;19990;-80
2022/12/02 02:48:58;;;;;;;;;;;5.90;97.40;;;;;;5096190;28;19995;-79
2022/12/02 02:51:24;;;;;;;;;;;5.90;97.40;;;;;;5097214;28;19985;-79
2022/12/02 02:53:51;;;;;;;;;;;5.90;97.40;;;;;;5093546;28;19995;-80
2022/12/02 02:56:18;;;;;;;;;;;5.90;97.40;;;;;;5092255;28;19979;-78
2022/12/02 02:58:46;;;;;;;;;;;5.90;97.40;;;;;;5092071;28;19986;-79
2022/12/02 03:01:14;;;;;;;;;;;5.90;97.40;;;;;;5091817;28;19990;-80
2022/12/02 03:03:42;;;;;;;;;;;5.90;97.40;;;;;;5093446;28;20377;-79
2022/12/02 03:06:09;;;;;;;;;;;5.90;97.40;;;;;;5094933;28;19982;-80
2022/12/02 03:08:37;;;;;;;;;;;5.90;97.40;;;;;;5091549;28;20017;-81
2022/12/02 03:11:04;;;;;;;;;;;5.90;97.50;;;;;;5093957;28;20576;-79
2022/12/02 03:13:31;;;;;;;;;;;5.90;97.80;;;;;;5093470;28;19998;-80
2022/12/02 03:16:01;;;;;;;;;;;5.90;97.50;;;;;;5092216;28;21489;-80
2022/12/02 03:18:27;;;;;;;;;;;5.80;97.40;;;;;;5094244;28;20273;-80
2022/12/02 03:20:54;;;;;;;;;;;5.90;97.50;;;;;;5101784;28;19978;-77
2022/12/02 03:23:21;;;;;;;;;;;5.80;97.40;;;;;;5095884;28;19995;-79
2022/12/02 03:25:47;;;;;;;;;;;5.80;97.50;;;;;;5093492;28;20729;-79
2022/12/02 03:28:14;;;;;;;;;;;5.80;97.50;;;;;;5094892;28;19994;-80
2022/12/02 03:30:40;;;;;;;;;;;5.90;97.50;;;;;;5095905;28;19998;-79
2022/12/02 03:33:08;;;;;;;;;;;5.80;97.50;;;;;;5099399;28;19991;-80
2022/12/02 03:35:35;;;;;;;;;;;5.80;97.50;;;;;;5100970;28;20009;-78
2022/12/02 03:38:02;;;;;;;;;;;5.80;97.50;;;;;;5099623;28;20381;-80
2022/12/02 03:40:29;;;;;;;;;;;5.80;97.40;;;;;;5090100;28;19975;-80
2022/12/02 03:42:56;;;;;;;;;;;5.80;97.40;;;;;;5092508;28;19995;-80
2022/12/02 03:45:22;;;;;;;;;;;5.80;97.50;;;;;;5102064;28;20430;-78
2022/12/02 03:47:49;;;;;;;;;;;5.80;97.50;;;;;;5099607;28;20009;-79
2022/12/02 03:50:17;;;;;;;;;;;5.80;97.40;;;;;;5103018;28;19982;-81
2022/12/02 03:52:44;;;;;;;;;;;5.80;97.40;;;;;;5101637;28;19995;-81
2022/12/02 03:55:11;;;;;;;;;;;5.80;97.50;;;;;;5099758;28;20366;-77
2022/12/02 03:57:39;;;;;;;;;;;5.80;97.50;;;;;;5103227;28;19971;-80
2022/12/02 04:00:06;;;;;;;;;;;5.80;97.50;;;;;;5099397;28;20874;-78
2022/12/02 04:02:33;;;;;;;;;;;5.80;97.50;;;;;;5099114;28;20509;-80
2022/12/02 04:05:00;;;;;;;;;;;5.80;97.50;;;;;;5101451;28;20437;-79
2022/12/02 04:07:28;;;;;;;;;;;5.70;97.50;;;;;;5098438;28;19987;-79
2022/12/02 04:09:54;;;;;;;;;;;5.70;97.50;;;;;;5097485;28;20006;-80
2022/12/02 04:12:21;;;;;;;;;;;5.80;97.50;;;;;;5097074;28;20002;-80
2022/12/02 04:14:47;;;;;;;;;;;5.80;97.60;;;;;;5097804;28;19986;-81
2022/12/02 04:17:14;;;;;;;;;;;5.80;97.60;;;;;;5098635;28;19998;-79
2022/12/02 04:19:40;;;;;;;;;;;5.80;97.60;;;;;;5101596;28;19979;-80
2022/12/02 04:22:07;;;;;;;;;;;5.70;97.50;;;;;;5095990;28;19999;-79
2022/12/02 04:24:35;;;;;;;;;;;5.70;97.50;;;;;;5095861;28;19983;-79
2022/12/02 04:27:01;;;;;;;;;;;5.70;97.50;;;;;;5098270;28;20005;-79
2022/12/02 04:29:28;;;;;;;;;;;5.70;97.50;;;;;;5098948;28;19991;-80
2022/12/02 04:31:54;;;;;;;;;;;5.70;97.60;;;;;;5099057;28;20002;-80
2022/12/02 04:34:21;;;;;;;;;;;5.70;97.60;;;;;;5100166;28;19975;-79
2022/12/02 04:36:48;;;;;;;;;;;5.70;97.60;;;;;;5103545;28;19975;-79
2022/12/02 04:39:14;;;;;;;;;;;5.70;97.60;;;;;;5097704;28;19982;-79
2022/12/02 04:41:42;;;;;;;;;;;5.70;97.60;;;;;;5098854;28;19982;-78
2022/12/02 04:44:08;;;;;;;;;;;5.70;97.60;;;;;;5095257;28;19982;-78
2022/12/02 04:46:35;;;;;;;;;;;5.70;97.70;;;;;;5095893;28;19995;-79
2022/12/02 04:49:02;;;;;;;;;;;5.70;97.60;;;;;;5098508;28;19998;-80
2022/12/02 04:51:28;;;;;;;;;;;5.60;97.60;;;;;;5102218;28;19982;-80
2022/12/02 04:53:55;;;;;;;;;;;5.70;97.70;;;;;;5097905;28;20595;-79
2022/12/02 04:56:21;;;;;;;;;;;5.60;97.60;;;;;;5097820;28;19975;-80
2022/12/02 04:58:49;;;;;;;;;;;5.70;97.70;;;;;;5097736;28;19986;-81
2022/12/02 05:01:16;;;;;;;;;;;5.70;97.70;;;;;;5101743;28;19990;-79
2022/12/02 05:03:42;;;;;;;;;;;5.60;97.70;;;;;;5096881;28;20533;-80
2022/12/02 05:06:09;;;;;;;;;;;5.70;97.70;;;;;;5104670;28;20462;-80
2022/12/02 05:08:36;;;;;;;;;;;5.70;97.70;;;;;;5094956;28;20013;-80
2022/12/02 05:11:02;;;;;;;;;;;5.60;97.70;;;;;;5095860;28;19971;-80
2022/12/02 05:13:29;;;;;;;;;;;5.60;97.70;;;;;;5099273;28;19995;-80
2022/12/02 05:15:57;;;;;;;;;;;5.60;97.70;;;;;;5100907;28;20375;-79
2022/12/02 05:18:23;;;;;;;;;;;5.60;97.70;;;;;;5100604;28;19975;-80
2022/12/02 05:20:50;;;;;;;;;;;5.60;97.70;;;;;;5099555;28;19975;-81
2022/12/02 05:23:16;;;;;;;;;;;5.60;97.70;;;;;;5106192;28;19991;-80
2022/12/02 05:25:43;;;;;;;;;;;5.60;97.70;;;;;;5113084;28;19978;-80
2022/12/02 05:28:09;;;;;;;;;;;5.60;97.70;;;;;;5112016;28;19987;-81
2022/12/02 05:30:36;;;;;;;;;;;5.60;97.70;;;;;;5109828;28;20012;-80
2022/12/02 05:33:04;;;;;;;;;;;5.60;97.70;;;;;;5101063;28;20100;-80
2022/12/02 05:35:30;;;;;;;;;;;5.60;97.70;;;;;;5095959;28;19982;-79
2022/12/02 05:37:57;;;;;;;;;;;5.60;97.70;;;;;;5102227;28;20485;-81
2022/12/02 05:40:23;;;;;;;;;;;5.60;97.70;;;;;;5097235;28;20335;-81
2022/12/02 05:42:50;;;;;;;;;;;5.70;97.80;;;;;;5098799;28;20556;-82
2022/12/02 05:45:18;;;;;;;;;;;5.60;97.80;;;;;;5096915;28;20445;-80
2022/12/02 05:47:48;;;;;;;;;;;5.60;97.80;;;;;;5096961;28;20521;-80
2022/12/02 05:50:16;;;;;;;;;;;5.60;98.10;;;;;;5099570;28;19989;-82
2022/12/02 05:52:43;;;;;;;;;;;5.60;97.80;;;;;;5092205;28;20525;-82
2022/12/02 05:55:14;;;;;;;;;;;5.60;97.80;;;;;;5100643;28;20418;-82
2022/12/02 05:57:41;;;;;;;;;;;5.60;97.90;;;;;;5102194;28;20495;-82
2022/12/02 06:00:12;;;;;;;;;;;5.60;98.20;;;;;;5094159;28;19975;-80
2022/12/02 06:02:40;;;;;;;;;;;5.60;97.90;;;;;;5096514;28;19991;-80
2022/12/02 06:05:12;;;;;;;;;;;5.60;97.90;;;;;;5096260;28;19979;-81
2022/12/02 06:07:40;;;;;;;;;;;5.60;97.90;;;;;;5093687;28;19975;-80
2022/12/02 06:10:10;;;;;;;;;;;5.60;97.90;;;;;;5093523;28;19974;-80
2022/12/02 06:12:36;;;;;;;;;;;5.60;97.90;;;;;;5098626;28;19999;-80
2022/12/02 06:15:03;;;;;;;;;;;5.60;98.00;;;;;;5095158;28;19981;-80
2022/12/02 06:17:30;;;;;;;;;;;5.60;98.00;;;;;;5099920;28;19991;-81
2022/12/02 06:19:57;;;;;;;;;;;5.50;97.90;;;;;;5097707;28;19986;-80
2022/12/02 06:22:26;;;;;;;;;;;5.60;98.00;;;;;;5095916;28;20091;-80
2022/12/02 06:24:55;;;;;;;;;;;5.50;98.00;;;;;;5101029;28;19983;-81
2022/12/02 06:27:21;;;;;;;;;;;5.50;97.90;;;;;;5093107;28;19983;-80
2022/12/02 06:29:50;;;;;;;;;;;5.50;98.00;;;;;;5099624;28;19994;-80
2022/12/02 06:32:18;;;;;;;;;;;5.60;98.00;;;;;;5099228;28;20006;-82
2022/12/02 06:34:45;;;;;;;;;;;5.50;98.00;;;;;;5099387;28;20763;-81
2022/12/02 06:37:14;;;;;;;;;;;5.50;98.00;;;;;;5096052;28;19975;-80
2022/12/02 06:39:41;;;;;;;;;;;5.50;98.00;;;;;;5096415;28;20046;-80
2022/12/02 06:42:14;;;;;;;;;;;5.50;98.00;;;;;;5098825;28;19995;-81
2022/12/02 06:47:44;;;;;;;;;;;5.50;98.00;;;;;;5099133;28;20000;-81
2022/12/02 06:50:22;;;;;;;;;;;5.60;98.00;;;;;;5093356;28;20478;-80
2022/12/02 06:52:49;;;;;;;;;;;5.50;98.00;;;;;;5099961;28;20002;-83
2022/12/02 06:55:25;;;;;;;;;;;5.50;98.00;;;;;;5101579;28;19975;-82
2022/12/02 06:57:53;;;;;;;;;;;5.50;98.00;;;;;;5093899;28;20354;-80
2022/12/02 07:00:20;;;;;;;;;;;5.50;98.00;;;;;;5095852;28;20791;-81
2022/12/02 07:02:47;;;;;;;;;;;5.50;98.00;;;;;;5095716;28;20854;-81
2022/12/02 07:05:16;;;;;;;;;;;5.50;98.00;;;;;;5094143;28;20032;-81
2022/12/02 07:07:43;;;;;;;;;;;5.50;98.00;;;;;;5096357;28;19975;-80
2022/12/02 07:10:14;;;;;;;;;;;5.50;98.00;;;;;;5099388;28;20529;-81
2022/12/02 07:12:42;;;;;;;;;;;5.50;98.10;;;;;;5099169;28;20324;-81
2022/12/02 07:15:16;;;;;;;;;;;5.50;98.10;;;;;;5096583;28;20406;-81
2022/12/02 07:17:43;;;;;;;;;;;5.50;98.10;;;;;;5096400;28;20253;-80
2022/12/02 07:20:19;;;;;;;;;;;5.50;98.00;;;;;;5091783;28;20463;-80
2022/12/02 07:22:47;;;;;;;;;;;5.50;98.00;;;;;;5091470;28;20037;-78
2022/12/02 07:25:24;;;;;;;;;;;5.50;98.00;;;;;;5095091;28;19979;-77
2022/12/02 07:27:51;;;;;;;;;;;5.50;98.00;;;;;;5096365;28;19975;-79
2022/12/02 07:30:23;;;;;;;;;;;5.50;98.00;;;;;;5099235;28;19997;-78
2022/12/02 07:32:49;;;;;;;;;;;5.50;98.00;;;;;;5101495;27;20005;-79
2022/12/02 07:35:16;;;;;;;;;;;5.50;98.10;;;;;;5099254;27;19985;-77
2022/12/02 07:37:42;;;;;;;;;;;5.50;98.10;;;;;;5099679;27;19975;-79
2022/12/02 07:40:09;;;;;;;;;;;5.50;98.10;;;;;;5102069;28;19982;-79
2022/12/02 07:42:36;;;;;;;;;;;5.50;98.10;;;;;;5100948;27;19991;-78
2022/12/02 07:45:03;;;;;;;;;;;5.50;98.10;;;;;;5096731;27;19982;-78
2022/12/02 07:47:31;;;;;;;;;;;5.50;98.10;;;;;;5095859;27;19995;-77
2022/12/02 07:49:57;;;;;;;;;;;5.50;98.10;;;;;;5097379;28;20091;-78
2022/12/02 07:52:24;;;;;;;;;;;5.50;98.10;;;;;;5101031;28;19998;-78
2022/12/02 07:54:53;;;;;;;;;;;5.40;98.10;;;;;;5104892;27;19985;-80
2022/12/02 07:57:19;;;;;;;;;;;5.50;98.40;;;;;;5103058;27;20058;-78
2022/12/02 07:59:46;;;;;;;;;;;5.40;98.10;;;;;;5111627;27;19980;-77
2022/12/02 08:02:13;;;;;;;;;;;5.40;98.10;;;;;;5102525;28;19999;-79
2022/12/02 08:04:41;;;;;;;;;;;5.40;98.10;;;;;;5106617;28;19975;-76
2022/12/02 08:07:07;;;;;;;;;;;5.50;98.10;;;;;;5097465;28;19974;-77
2022/12/02 08:09:34;;;;;;;;;;;5.50;98.10;;;;;;5107878;27;19991;-79
2022/12/02 08:12:00;;;;;;;;;;;5.40;98.10;;;;;;5111153;27;19995;-77
2022/12/02 08:14:27;;;;;;;;;;;5.40;98.10;;;;;;5104770;27;19983;-79
2022/12/02 08:16:53;;;;;;;;;;;5.40;98.10;;;;;;5102892;27;20001;-77
2022/12/02 08:19:20;;;;;;;;;;;5.40;98.20;;;;;;5100387;27;19991;-78
2022/12/02 08:21:48;;;;;;;;;;;5.50;98.20;;;;;;5102743;27;20508;-77
2022/12/02 08:24:14;;;;;;;;;;;5.40;98.20;;;;;;5099413;28;20148;-78
2022/12/02 08:26:42;;;;;;;;;;;5.40;98.20;;;;;;5100309;28;20006;-78
2022/12/02 08:29:08;;;;;;;;;;;5.40;98.20;;;;;;5100931;28;19991;-77
2022/12/02 08:31:35;;;;;;;;;;;5.40;98.20;;;;;;5100600;27;19998;-78
2022/12/02 08:34:02;;;;;;;;;;;5.40;98.20;;;;;;5096917;27;19982;-77
2022/12/02 08:36:28;;;;;;;;;;;5.40;98.20;;;;;;5100812;27;19979;-77
2022/12/02 08:38:56;;;;;;;;;;;5.40;98.20;;;;;;5096360;28;20275;-77
2022/12/02 08:41:23;;;;;;;;;;;5.40;98.20;;;;;;5088002;28;19979;-77
2022/12/02 08:43:50;;;;;;;;;;;5.40;98.20;;;;;;5096311;28;19990;-78
2022/12/02 08:46:16;;;;;;;;;;;5.40;98.30;;;;;;5094170;27;20034;-78
2022/12/02 08:48:43;;;;;;;;;;;5.30;98.20;;;;;;5097232;28;19995;-77
2022/12/02 08:51:10;;;;;;;;;;;5.40;98.20;;;;;;5091282;27;19978;-79
2022/12/02 08:53:36;;;;;;;;;;;5.40;98.20;;;;;;5095243;28;20649;-77
2022/12/02 08:56:04;;;;;;;;;;;5.40;98.30;;;;;;5093027;28;20167;-77
2022/12/02 08:58:31;;;;;;;;;;;5.40;98.20;;;;;;5099658;28;19975;-76
2022/12/02 09:00:57;;;;;;;;;;;5.40;98.30;;;;;;5100524;28;20013;-77
2022/12/02 09:03:24;;;;;;;;;;;5.40;98.30;;;;;;5094774;28;19998;-78
2022/12/02 09:05:50;;;;;;;;;;;5.40;98.20;;;;;;5102540;28;20444;-76
2022/12/02 09:08:17;;;;;;;;;;;5.40;98.30;;;;;;5097898;27;20029;-76
2022/12/02 09:10:43;;;;;;;;;;;5.40;98.30;;;;;;5089546;28;19997;-76
2022/12/02 09:13:11;;;;;;;;;;;5.40;98.30;;;;;;5097621;27;19995;-75
2022/12/02 09:15:38;;;;;;;;;;;5.40;98.30;;;;;;5096258;28;19995;-76
2022/12/02 09:18:05;;;;;;;;;;;5.40;98.60;;;;;;5095199;27;20640;-76
2022/12/02 09:20:31;;;;;;;;;;;5.40;98.30;;;;;;5098560;27;19979;-76
2022/12/02 09:23:00;;;;;;;;;;;5.40;98.30;;;;;;5098980;27;19994;-76
2022/12/02 09:25:27;;;;;;;;;;;5.40;98.30;;;;;;5100492;28;20174;-76
2022/12/02 09:27:54;;;;;;;;;;;5.40;98.30;;;;;;5096760;27;19986;-75
2022/12/02 09:30:22;;;;;;;;;;;5.40;98.30;;;;;;5099969;27;19995;-76
2022/12/02 09:32:48;;;;;;;;;;;5.40;98.30;;;;;;5102864;27;19990;-76
2022/12/02 09:35:15;;;;;;;;;;;5.40;98.40;;;;;;5099160;27;19978;-76
2022/12/02 09:37:41;;;;;;;;;;;5.40;98.40;;;;;;5101149;27;19975;-77
2022/12/02 09:40:09;;;;;;;;;;;5.40;98.30;;;;;;5098126;27;19975;-76
2022/12/02 09:42:35;;;;;;;;;;;5.40;98.40;;;;;;5099368;27;20368;-76
2022/12/02 09:45:02;;;;;;;;;;;5.40;98.40;;;;;;5097903;27;19975;-76
2022/12/02 09:47:30;;;;;;;;;;;5.40;98.40;;;;;;5094572;27;20370;-76
2022/12/02 09:49:57;;;;;;;;;;;5.40;98.40;;;;;;5102983;28;19999;-76
2022/12/02 09:52:24;;;;;;;;;;;5.40;98.40;;;;;;5098280;28;19995;-76
2022/12/02 09:54:51;;;;;;;;;;;5.40;98.40;;;;;;5094692;28;19982;-78
2022/12/02 09:57:18;;;;;;;;;;;5.40;98.40;;;;;;5093349;27;20433;-77
2022/12/02 09:59:45;;;;;;;;;;;5.40;98.50;;;;;;5104260;27;19982;-78
2022/12/02 10:02:19;;;;;;;;;;;5.40;98.40;;;;;;5102752;27;20002;-77
2022/12/02 10:04:47;;;;;;;;;;;5.40;98.50;;;;;;5104480;27;20491;-78
2022/12/02 10:07:14;;;;;;;;;;;5.40;98.50;;;;;;5106214;27;19997;-77
2022/12/02 10:09:40;;;;;;;;;;;5.40;98.50;;;;;;5090156;28;20653;-76
2022/12/02 10:12:08;;;;;;;;;;;5.40;98.50;;;;;;5097608;27;19995;-77
2022/12/02 10:14:35;;;;;;;;;;;5.40;98.50;;;;;;5093002;27;19981;-77
2022/12/02 10:17:01;;;;;;;;;;;5.40;98.50;;;;;;5098504;27;19990;-76
2022/12/02 10:19:28;;;;;;;;;;;5.40;98.50;;;;;;5101401;28;19981;-76
2022/12/02 10:21:56;;;;;;;;;;;5.40;98.50;;;;;;5097612;28;20005;-77
2022/12/02 10:24:34;;;;;;;;;;;5.40;98.50;;;;;;5095401;27;20442;-76
2022/12/02 10:27:01;;;;;;;;;;;5.40;98.50;;;;;;5099849;28;19982;-76
2022/12/02 10:29:29;;;;;;;;;;;5.40;98.80;;;;;;5097349;28;20742;-77
2022/12/02 10:31:56;;;;;;;;;;;5.40;98.50;;;;;;5099344;27;20004;-76
2022/12/02 10:34:23;;;;;;;;;;;5.40;98.60;;;;;;5097838;27;19975;-76
2022/12/02 10:36:50;;;;;;;;;;;5.40;98.60;;;;;;5102579;27;19981;-76
2022/12/02 10:39:22;;;;;;;;;;;5.40;98.60;;;;;;5098204;28;19975;-76
2022/12/02 10:41:49;;;;;;;;;;;5.40;98.60;;;;;;5100071;28;19975;-77
2022/12/02 10:44:16;;;;;;;;;;;5.40;98.60;;;;;;5096809;27;19978;-76
2022/12/02 10:46:43;;;;;;;;;;;5.40;98.60;;;;;;5101108;27;20422;-77
2022/12/02 10:49:29;;;;;;;;;;;5.40;98.60;;;;;;5097546;27;19979;-77
2022/12/02 10:51:58;;;;;;;;;;;5.40;98.60;;;;;;5096648;28;20006;-77
2022/12/02 10:54:28;;;;;;;;;;;5.40;98.60;;;;;;5096455;28;20002;-77
2022/12/02 10:56:55;;;;;;;;;;;5.40;98.60;;;;;;5093701;28;20747;-76
2022/12/02 10:59:22;;;;;;;;;;;5.40;98.60;;;;;;5103848;28;19975;-76
2022/12/02 11:01:49;;;;;;;;;;;5.40;98.60;;;;;;5090930;28;20374;-77
2022/12/02 11:04:16;;;;;;;;;;;5.40;98.60;;;;;;5098871;28;20500;-76
2022/12/02 11:06:43;;;;;;;;;;;5.40;98.60;;;;;;5099771;28;20368;-77
2022/12/02 11:09:14;;;;;;;;;;;5.40;98.60;;;;;;5091284;28;19975;-77
2022/12/02 11:11:42;;;;;;;;;;;5.40;98.60;;;;;;5097955;28;19974;-76
2022/12/02 11:14:11;;;;;;;;;;;5.40;98.60;;;;;;5098451;28;20523;-76
2022/12/02 11:16:55;;;;;;;;;;;5.40;98.60;;;;;;5098635;28;19995;-76
2022/12/02 11:19:37;;;;;;;;;;;5.40;98.60;;;;;;5093224;28;19979;-77
2022/12/02 11:22:04;;;;;;;;;;;5.40;98.60;;;;;;5104998;28;20083;-77
2022/12/02 11:24:35;;;;;;;;;;;5.40;98.60;;;;;;5093463;28;20655;-76
2022/12/02 11:27:07;;;;;;;;;;;5.40;98.60;;;;;;5099264;28;19979;-76
2022/12/02 11:29:36;;;;;;;;;;;5.40;98.60;;;;;;5082971;28;20398;-77
2022/12/02 11:32:04;;;;;;;;;;;5.40;98.60;;;;;;5075878;28;20265;-78
2022/12/02 11:34:41;;;;;;;;;;;5.40;98.60;;;;;;5076374;28;20787;-77
2022/12/02 11:37:26;;;;;;;;;;;5.40;98.60;;;;;;5074429;28;20002;-76
2022/12/02 11:39:53;;;;;;;;;;;5.40;98.60;;;;;;5076958;28;19983;-76
2022/12/02 11:42:22;;;;;;;;;;;5.40;98.60;;;;;;5079731;28;20663;-77
2022/12/02 11:44:48;;;;;;;;;;;5.40;98.60;;;;;;5078635;28;19979;-78
2022/12/02 11:47:26;;;;;;;;;;;5.40;98.60;;;;;;5078862;28;20474;-77
2022/12/02 11:49:53;;;;;;;;;;;5.40;98.60;;;;;;5074110;28;20127;-77
2022/12/02 11:52:21;;;;;;;;;;;5.40;98.60;;;;;;5074562;28;19995;-77
2022/12/02 11:54:50;;;;;;;;;;;5.40;98.50;;;;;;5070215;28;20451;-76
2022/12/02 11:57:18;;;;;;;;;;;5.50;98.60;;;;;;5069517;28;20028;-77
2022/12/02 11:59:47;;;;;;;;;;;5.40;98.50;;;;;;5077781;28;20435;-75
2022/12/02 12:02:14;;;;;;;;;;;5.40;98.50;;;;;;5073807;28;20003;-76
2022/12/02 12:04:42;;;;;;;;;;;5.40;98.60;;;;;;5071561;28;19982;-76
2022/12/02 12:07:08;;;;;;;;;;;5.50;98.60;;;;;;5071987;28;20005;-77
2022/12/02 12:09:35;;;;;;;;;;;5.40;98.50;;;;;;5071784;28;19991;-77
2022/12/02 12:12:05;;;;;;;;;;;5.40;98.50;;;;;;5075308;28;20001;-76
2022/12/02 12:14:32;;;;;;;;;;;5.50;98.50;;;;;;5079637;28;19979;-77
2022/12/02 12:17:13;;;;;;;;;;;5.40;98.50;;;;;;5078787;28;20561;-77
2022/12/02 12:19:41;;;;;;;;;;;5.50;98.50;;;;;;5077911;28;19986;-77
2022/12/02 12:22:23;;;;;;;;;;;5.40;98.50;;;;;;5079007;28;19991;-77
2022/12/02 12:24:49;;;;;;;;;;;5.50;98.50;;;;;;5082013;28;19979;-77
2022/12/02 12:27:31;;;;;;;;;;;5.50;98.50;;;;;;5075837;28;19989;-76
2022/12/02 12:29:57;;;;;;;;;;;5.50;98.50;;;;;;5092062;28;20001;-77
2022/12/02 12:32:24;;;;;;;;;;;5.50;98.50;;;;;;5099399;28;20001;-76
2022/12/02 12:34:52;;;;;;;;;;;5.50;98.50;;;;;;5097277;28;20118;-77
2022/12/02 12:37:18;;;;;;;;;;;5.50;98.60;;;;;;5097642;28;19982;-78
2022/12/02 12:39:45;;;;;;;;;;;5.50;98.60;;;;;;5101158;28;19975;-77
2022/12/02 12:42:12;;;;;;;;;;;5.50;98.60;;;;;;5092314;28;20132;-77
2022/12/02 12:44:39;;;;;;;;;;;5.50;98.50;;;;;;5091791;28;19978;-76
2022/12/02 12:47:05;;;;;;;;;;;5.50;98.50;;;;;;5093377;27;20000;-75
2022/12/02 12:49:33;;;;;;;;;;;5.50;98.60;;;;;;5100718;28;19975;-77
2022/12/02 12:52:01;;;;;;;;;;;5.50;98.60;;;;;;5101689;28;19995;-76
2022/12/02 12:54:28;;;;;;;;;;;5.50;98.60;;;;;;5098545;28;19983;-77
2022/12/02 12:56:54;;;;;;;;;;;5.50;98.60;;;;;;5094499;28;20464;-78
2022/12/02 12:59:21;;;;;;;;;;;5.50;98.60;;;;;;5094400;28;20072;-79
2022/12/02 13:01:47;;;;;;;;;;;5.50;98.60;;;;;;5100385;28;19990;-78
2022/12/02 13:04:14;;;;;;;;;;;5.40;98.60;;;;;;5102040;28;19982;-77
2022/12/02 13:06:41;;;;;;;;;;;5.50;98.60;;;;;;5096113;28;19978;-77
2022/12/02 13:09:08;;;;;;;;;;;5.50;98.60;;;;;;5099457;28;20354;-77
2022/12/02 13:11:35;;;;;;;;;;;5.50;98.60;;;;;;5100614;28;20005;-78
2022/12/02 13:14:02;;;;;;;;;;;5.50;98.60;;;;;;5099716;28;19978;-77
2022/12/02 13:16:28;;;;;;;;;;;5.50;98.60;;;;;;5095191;28;20454;-77
2022/12/02 13:18:55;;;;;;;;;;;5.40;98.50;;;;;;5096335;28;20002;-77
2022/12/02 13:21:21;;;;;;;;;;;5.50;98.90;;;;;;5096753;28;20323;-78
2022/12/02 13:23:48;;;;;;;;;;;5.40;98.60;;;;;;5095035;28;19990;-77
2022/12/02 13:26:16;;;;;;;;;;;5.50;98.60;;;;;;5100663;28;19979;-78
2022/12/02 13:28:42;;;;;;;;;;;5.50;98.60;;;;;;5096219;28;20577;-77
2022/12/02 13:31:09;;;;;;;;;;;5.50;98.60;;;;;;5100719;28;20001;-78
2022/12/02 13:33:36;;;;;;;;;;;5.50;98.60;;;;;;5096248;28;20002;-77
2022/12/02 13:36:02;;;;;;;;;;;5.40;98.60;;;;;;5103769;28;19982;-77
2022/12/02 13:38:29;;;;;;;;;;;5.50;98.60;;;;;;5095725;28;20652;-77
2022/12/02 13:40:57;;;;;;;;;;;5.50;98.60;;;;;;5104531;28;20373;-77
2022/12/02 13:43:25;;;;;;;;;;;5.40;98.50;;;;;;5093602;28;20005;-78
2022/12/02 13:45:51;;;;;;;;;;;5.40;98.50;;;;;;5100718;28;19990;-77
2022/12/02 13:48:18;;;;;;;;;;;5.50;98.50;;;;;;5098511;28;19975;-77
2022/12/02 13:50:45;;;;;;;;;;;5.50;98.50;;;;;;5100074;28;19998;-77
2022/12/02 13:53:11;;;;;;;;;;;5.50;98.60;;;;;;5094181;28;20385;-77
2022/12/02 13:55:38;;;;;;;;;;;5.50;98.60;;;;;;5100707;28;20532;-78
2022/12/02 13:58:04;;;;;;;;;;;5.50;98.60;;;;;;5095049;28;19975;-77
2022/12/02 14:00:32;;;;;;;;;;;5.50;98.50;;;;;;5102558;28;19994;-77
2022/12/02 14:02:59;;;;;;;;;;;5.50;98.60;;;;;;5102270;28;20650;-77
2022/12/02 14:05:25;;;;;;;;;;;5.40;98.50;;;;;;5096273;28;20345;-78
2022/12/02 14:07:52;;;;;;;;;;;5.40;98.50;;;;;;5102245;28;20048;-77
2022/12/02 14:10:18;;;;;;;;;;;5.50;98.50;;;;;;5092174;28;20450;-77
2022/12/02 14:12:45;;;;;;;;;;;5.40;98.50;;;;;;5104277;28;19991;-77
2022/12/02 14:15:12;;;;;;;;;;;5.40;98.50;;;;;;5099647;28;19981;-78
2022/12/02 14:17:39;;;;;;;;;;;5.50;98.60;;;;;;5097632;28;19975;-77
2022/12/02 14:20:06;;;;;;;;;;;5.50;98.60;;;;;;5104863;28;19981;-78
2022/12/02 14:22:33;;;;;;;;;;;5.40;98.50;;;;;;5094764;28;20009;-77
2022/12/02 14:24:59;;;;;;;;;;;5.50;98.60;;;;;;5094880;28;19975;-77
2022/12/02 14:27:26;;;;;;;;;;;5.40;98.50;;;;;;5092452;28;20382;-77
2022/12/02 14:29:53;;;;;;;;;;;5.40;98.50;;;;;;5101545;27;19993;-76
2022/12/02 14:32:19;;;;;;;;;;;5.40;98.60;;;;;;5098664;27;19994;-77
2022/12/02 14:34:47;;;;;;;;;;;5.40;98.60;;;;;;5098044;27;19990;-77
2022/12/02 14:37:14;;;;;;;;;;;5.40;98.60;;;;;;5098571;28;19975;-77
2022/12/02 14:39:40;;;;;;;;;;;5.40;98.60;;;;;;5101558;28;20001;-78
2022/12/02 14:42:07;;;;;;;;;;;5.40;98.70;;;;;;5090695;27;20316;-78